sensor_id;sensor_type;location;lat;lon;timestamp;temperature;humidity
3071;DHT22;1546;47.208;9.038;2023-05-07T00:00:34;13.60;99.90
3071;DHT22;1546;47.208;9.038;2023-05-07T00:03:02;13.60;99.90
3071;DHT22;1546;47.208;9.038;2023-05-07T00:05:29;13.60;99.90
3071;DHT22;1546;47.208;9.038;2023-05-07T00:07:56;13.60;99.90
3071;DHT22;1546;47.208;9.038;2023-05-07T00:10:23;13.60;99.90
3071;DHT22;1546;47.208;9.038;2023-05-07T00:12:50;13.60;99.90
3071;DHT22;1546;47.208;9.038;2023-05-07T00:15:17;13.80;99.90
3071;DHT22;1546;47.208;9.038;2023-05-07T00:17:44;13.90;99.90
3071;DHT22;1546;47.208;9.038;2023-05-07T00:20:13;13.80;99.90
3071;DHT22;1546;47.208;9.038;2023-05-07T00:22:40;13.90;99.90
3071;DHT22;1546;47.208;9.038;2023-05-07T00:25:08;13.90;99.90
3071;DHT22;1546;47.208;9.038;2023-05-07T00:27:35;13.80;99.90
3071;DHT22;1546;47.208;9.038;2023-05-07T00:30:03;13.80;99.90
3071;DHT22;1546;47.208;9.038;2023-05-07T00:32:29;13.80;99.90
3071;DHT22;1546;47.208;9.038;2023-05-07T00:34:57;13.70;99.90
3071;DHT22;1546;47.208;9.038;2023-05-07T00:37:25;13.70;99.90
3071;DHT22;1546;47.208;9.038;2023-05-07T00:39:52;13.60;99.90
3071;DHT22;1546;47.208;9.038;2023-05-07T00:42:19;13.60;99.90
3071;DHT22;1546;47.208;9.038;2023-05-07T00:44:46;13.60;99.90
3071;DHT22;1546;47.208;9.038;2023-05-07T00:47:13;13.60;99.90
3071;DHT22;1546;47.208;9.038;2023-05-07T00:49:42;13.60;99.90
3071;DHT22;1546;47.208;9.038;2023-05-07T00:52:11;13.60;99.90
3071;DHT22;1546;47.208;9.038;2023-05-07T00:54:41;13.60;99.90
3071;DHT22;1546;47.208;9.038;2023-05-07T00:57:09;13.50;99.90
3071;DHT22;1546;47.208;9.038;2023-05-07T00:59:37;13.60;99.90
3071;DHT22;1546;47.208;9.038;2023-05-07T01:02:05;13.60;99.90
3071;DHT22;1546;47.208;9.038;2023-05-07T01:04:32;13.60;99.90
3071;DHT22;1546;47.208;9.038;2023-05-07T01:06:59;13.70;99.90
3071;DHT22;1546;47.208;9.038;2023-05-07T01:09:28;13.70;99.90
3071;DHT22;1546;47.208;9.038;2023-05-07T01:11:57;13.60;99.90
3071;DHT22;1546;47.208;9.038;2023-05-07T01:14:25;13.60;99.90
3071;DHT22;1546;47.208;9.038;2023-05-07T01:16:52;13.70;99.90
3071;DHT22;1546;47.208;9.038;2023-05-07T01:19:20;13.70;99.90
3071;DHT22;1546;47.208;9.038;2023-05-07T01:21:48;13.70;99.90
3071;DHT22;1546;47.208;9.038;2023-05-07T01:24:16;13.70;99.90
3071;DHT22;1546;47.208;9.038;2023-05-07T01:26:43;13.70;99.90
3071;DHT22;1546;47.208;9.038;2023-05-07T01:29:10;13.70;99.90
3071;DHT22;1546;47.208;9.038;2023-05-07T01:31:38;13.70;99.90
3071;DHT22;1546;47.208;9.038;2023-05-07T01:34:07;13.60;99.90
3071;DHT22;1546;47.208;9.038;2023-05-07T01:36:37;13.60;99.90
3071;DHT22;1546;47.208;9.038;2023-05-07T01:39:06;13.70;99.90
3071;DHT22;1546;47.208;9.038;2023-05-07T01:41:34;13.80;99.90
3071;DHT22;1546;47.208;9.038;2023-05-07T01:44:03;13.80;99.90
3071;DHT22;1546;47.208;9.038;2023-05-07T01:46:31;13.80;99.90
3071;DHT22;1546;47.208;9.038;2023-05-07T01:48:59;13.70;99.90
3071;DHT22;1546;47.208;9.038;2023-05-07T01:51:26;13.60;99.90
3071;DHT22;1546;47.208;9.038;2023-05-07T01:53:53;13.50;99.90
3071;DHT22;1546;47.208;9.038;2023-05-07T01:56:21;13.40;99.90
3071;DHT22;1546;47.208;9.038;2023-05-07T01:58:49;13.30;99.90
3071;DHT22;1546;47.208;9.038;2023-05-07T02:01:17;13.20;99.90
3071;DHT22;1546;47.208;9.038;2023-05-07T02:03:44;13.20;99.90
3071;DHT22;1546;47.208;9.038;2023-05-07T02:06:11;13.20;99.90
3071;DHT22;1546;47.208;9.038;2023-05-07T02:08:38;13.10;99.90
3071;DHT22;1546;47.208;9.038;2023-05-07T02:11:05;13.10;99.90
3071;DHT22;1546;47.208;9.038;2023-05-07T02:13:33;13.00;99.90
3071;DHT22;1546;47.208;9.038;2023-05-07T02:16:01;13.00;99.90
3071;DHT22;1546;47.208;9.038;2023-05-07T02:18:29;13.10;99.90
3071;DHT22;1546;47.208;9.038;2023-05-07T02:20:56;13.20;99.90
3071;DHT22;1546;47.208;9.038;2023-05-07T02:23:22;13.30;99.90
3071;DHT22;1546;47.208;9.038;2023-05-07T02:25:50;13.30;99.90
3071;DHT22;1546;47.208;9.038;2023-05-07T02:28:17;13.40;99.90
3071;DHT22;1546;47.208;9.038;2023-05-07T02:30:44;13.60;99.90
3071;DHT22;1546;47.208;9.038;2023-05-07T02:33:12;13.70;99.90
3071;DHT22;1546;47.208;9.038;2023-05-07T02:35:39;13.70;99.90
3071;DHT22;1546;47.208;9.038;2023-05-07T02:38:06;13.70;99.90
3071;DHT22;1546;47.208;9.038;2023-05-07T02:40:36;13.60;99.90
3071;DHT22;1546;47.208;9.038;2023-05-07T02:43:04;13.60;99.90
3071;DHT22;1546;47.208;9.038;2023-05-07T02:45:31;13.60;99.90
3071;DHT22;1546;47.208;9.038;2023-05-07T02:47:58;13.60;99.90
3071;DHT22;1546;47.208;9.038;2023-05-07T02:50:27;13.60;99.90
3071;DHT22;1546;47.208;9.038;2023-05-07T02:52:54;13.50;99.90
3071;DHT22;1546;47.208;9.038;2023-05-07T02:55:21;13.40;99.90
3071;DHT22;1546;47.208;9.038;2023-05-07T02:57:48;13.40;99.90
3071;DHT22;1546;47.208;9.038;2023-05-07T03:00:16;13.30;99.90
3071;DHT22;1546;47.208;9.038;2023-05-07T03:02:43;13.30;99.90
3071;DHT22;1546;47.208;9.038;2023-05-07T03:05:10;13.20;99.90
3071;DHT22;1546;47.208;9.038;2023-05-07T03:07:39;13.10;99.90
3071;DHT22;1546;47.208;9.038;2023-05-07T03:10:10;13.10;99.90
3071;DHT22;1546;47.208;9.038;2023-05-07T03:12:37;13.20;99.90
3071;DHT22;1546;47.208;9.038;2023-05-07T03:15:05;13.20;99.90
3071;DHT22;1546;47.208;9.038;2023-05-07T03:17:32;13.20;99.90
3071;DHT22;1546;47.208;9.038;2023-05-07T03:19:59;13.20;99.90
3071;DHT22;1546;47.208;9.038;2023-05-07T03:22:26;13.30;99.90
3071;DHT22;1546;47.208;9.038;2023-05-07T03:24:54;13.30;99.90
3071;DHT22;1546;47.208;9.038;2023-05-07T03:27:21;13.40;99.90
3071;DHT22;1546;47.208;9.038;2023-05-07T03:29:48;13.50;99.90
3071;DHT22;1546;47.208;9.038;2023-05-07T03:32:14;13.40;99.90
3071;DHT22;1546;47.208;9.038;2023-05-07T03:34:41;13.50;99.90
3071;DHT22;1546;47.208;9.038;2023-05-07T03:37:08;13.50;99.90
3071;DHT22;1546;47.208;9.038;2023-05-07T03:39:35;13.50;99.90
3071;DHT22;1546;47.208;9.038;2023-05-07T03:42:03;13.50;99.90
3071;DHT22;1546;47.208;9.038;2023-05-07T03:44:30;13.50;99.90
3071;DHT22;1546;47.208;9.038;2023-05-07T03:46:57;13.30;99.90
3071;DHT22;1546;47.208;9.038;2023-05-07T03:49:24;13.30;99.90
3071;DHT22;1546;47.208;9.038;2023-05-07T03:51:51;13.30;99.90
3071;DHT22;1546;47.208;9.038;2023-05-07T03:54:18;13.30;99.90
3071;DHT22;1546;47.208;9.038;2023-05-07T03:56:44;13.20;99.90
3071;DHT22;1546;47.208;9.038;2023-05-07T03:59:13;13.10;99.90
3071;DHT22;1546;47.208;9.038;2023-05-07T04:01:40;13.20;99.90
3071;DHT22;1546;47.208;9.038;2023-05-07T04:04:07;13.30;99.90
3071;DHT22;1546;47.208;9.038;2023-05-07T04:06:34;13.30;99.90
3071;DHT22;1546;47.208;9.038;2023-05-07T04:09:01;13.20;99.90
3071;DHT22;1546;47.208;9.038;2023-05-07T04:11:28;13.10;99.90
3071;DHT22;1546;47.208;9.038;2023-05-07T04:13:55;13.00;99.90
3071;DHT22;1546;47.208;9.038;2023-05-07T04:16:23;12.90;99.90
3071;DHT22;1546;47.208;9.038;2023-05-07T04:18:50;12.90;99.90
3071;DHT22;1546;47.208;9.038;2023-05-07T04:21:18;12.90;99.90
3071;DHT22;1546;47.208;9.038;2023-05-07T04:23:45;12.80;99.90
3071;DHT22;1546;47.208;9.038;2023-05-07T04:26:13;12.90;99.90
3071;DHT22;1546;47.208;9.038;2023-05-07T04:28:40;13.10;99.90
3071;DHT22;1546;47.208;9.038;2023-05-07T04:31:07;13.20;99.90
3071;DHT22;1546;47.208;9.038;2023-05-07T04:33:35;13.40;99.90
3071;DHT22;1546;47.208;9.038;2023-05-07T04:36:03;13.40;99.90
3071;DHT22;1546;47.208;9.038;2023-05-07T04:38:30;13.50;99.90
3071;DHT22;1546;47.208;9.038;2023-05-07T04:40:57;13.70;99.90
3071;DHT22;1546;47.208;9.038;2023-05-07T04:43:24;13.80;99.90
3071;DHT22;1546;47.208;9.038;2023-05-07T04:45:51;14.00;99.90
3071;DHT22;1546;47.208;9.038;2023-05-07T04:48:18;14.10;99.90
3071;DHT22;1546;47.208;9.038;2023-05-07T04:50:48;14.10;99.90
3071;DHT22;1546;47.208;9.038;2023-05-07T04:53:16;14.10;99.90
3071;DHT22;1546;47.208;9.038;2023-05-07T04:55:43;14.20;99.90
3071;DHT22;1546;47.208;9.038;2023-05-07T04:58:10;14.40;99.90
3071;DHT22;1546;47.208;9.038;2023-05-07T05:00:37;14.40;99.90
3071;DHT22;1546;47.208;9.038;2023-05-07T05:03:06;14.30;99.90
3071;DHT22;1546;47.208;9.038;2023-05-07T05:05:33;14.20;99.90
3071;DHT22;1546;47.208;9.038;2023-05-07T05:08:01;14.20;99.90
3071;DHT22;1546;47.208;9.038;2023-05-07T05:10:28;14.20;99.90
3071;DHT22;1546;47.208;9.038;2023-05-07T05:12:55;14.10;99.90
3071;DHT22;1546;47.208;9.038;2023-05-07T05:15:22;14.20;99.90
3071;DHT22;1546;47.208;9.038;2023-05-07T05:17:48;14.20;99.90
3071;DHT22;1546;47.208;9.038;2023-05-07T05:20:16;14.20;99.90
3071;DHT22;1546;47.208;9.038;2023-05-07T05:22:43;14.40;99.90
3071;DHT22;1546;47.208;9.038;2023-05-07T05:25:11;14.50;99.90
3071;DHT22;1546;47.208;9.038;2023-05-07T05:27:38;14.70;99.90
3071;DHT22;1546;47.208;9.038;2023-05-07T05:30:06;14.80;99.90
3071;DHT22;1546;47.208;9.038;2023-05-07T05:32:33;14.90;99.90
3071;DHT22;1546;47.208;9.038;2023-05-07T05:35:00;15.00;99.90
3071;DHT22;1546;47.208;9.038;2023-05-07T05:37:27;15.20;99.90
3071;DHT22;1546;47.208;9.038;2023-05-07T05:39:55;15.40;99.90
3071;DHT22;1546;47.208;9.038;2023-05-07T05:42:23;15.50;99.90
3071;DHT22;1546;47.208;9.038;2023-05-07T05:44:50;15.60;99.90
3071;DHT22;1546;47.208;9.038;2023-05-07T05:47:17;15.60;99.90
3071;DHT22;1546;47.208;9.038;2023-05-07T05:49:44;15.60;99.90
3071;DHT22;1546;47.208;9.038;2023-05-07T05:52:12;15.60;99.90
3071;DHT22;1546;47.208;9.038;2023-05-07T05:54:39;15.70;99.90
3071;DHT22;1546;47.208;9.038;2023-05-07T05:57:06;15.70;99.90
3071;DHT22;1546;47.208;9.038;2023-05-07T05:59:35;15.70;99.90
3071;DHT22;1546;47.208;9.038;2023-05-07T06:02:02;15.70;99.90
3071;DHT22;1546;47.208;9.038;2023-05-07T06:04:29;15.80;99.90
3071;DHT22;1546;47.208;9.038;2023-05-07T06:06:56;15.80;99.90
3071;DHT22;1546;47.208;9.038;2023-05-07T06:09:23;15.80;99.90
3071;DHT22;1546;47.208;9.038;2023-05-07T06:11:50;15.90;99.90
3071;DHT22;1546;47.208;9.038;2023-05-07T06:14:17;16.10;99.90
3071;DHT22;1546;47.208;9.038;2023-05-07T06:16:45;16.20;99.90
3071;DHT22;1546;47.208;9.038;2023-05-07T06:19:12;16.40;99.90
3071;DHT22;1546;47.208;9.038;2023-05-07T06:21:39;16.50;99.90
3071;DHT22;1546;47.208;9.038;2023-05-07T06:24:07;16.60;99.90
3071;DHT22;1546;47.208;9.038;2023-05-07T06:26:34;16.80;99.90
3071;DHT22;1546;47.208;9.038;2023-05-07T06:29:00;17.00;99.90
3071;DHT22;1546;47.208;9.038;2023-05-07T06:31:29;17.10;99.90
3071;DHT22;1546;47.208;9.038;2023-05-07T06:33:58;17.30;99.90
3071;DHT22;1546;47.208;9.038;2023-05-07T06:36:27;17.60;99.90
3071;DHT22;1546;47.208;9.038;2023-05-07T06:38:54;17.60;99.90
3071;DHT22;1546;47.208;9.038;2023-05-07T06:41:21;17.70;99.90
3071;DHT22;1546;47.208;9.038;2023-05-07T06:43:48;17.90;99.90
3071;DHT22;1546;47.208;9.038;2023-05-07T06:46:15;18.10;99.90
3071;DHT22;1546;47.208;9.038;2023-05-07T06:48:42;18.20;99.90
3071;DHT22;1546;47.208;9.038;2023-05-07T06:51:11;18.30;99.90
3071;DHT22;1546;47.208;9.038;2023-05-07T06:53:38;18.30;99.90
3071;DHT22;1546;47.208;9.038;2023-05-07T06:56:05;18.20;99.90
3071;DHT22;1546;47.208;9.038;2023-05-07T06:58:32;18.30;99.90
3071;DHT22;1546;47.208;9.038;2023-05-07T07:00:59;18.50;99.90
3071;DHT22;1546;47.208;9.038;2023-05-07T07:03:26;18.70;99.90
3071;DHT22;1546;47.208;9.038;2023-05-07T07:05:54;19.00;99.90
3071;DHT22;1546;47.208;9.038;2023-05-07T07:08:22;18.90;99.90
3071;DHT22;1546;47.208;9.038;2023-05-07T07:10:49;18.90;99.90
3071;DHT22;1546;47.208;9.038;2023-05-07T07:13:16;18.80;99.90
3071;DHT22;1546;47.208;9.038;2023-05-07T07:15:43;18.80;99.90
3071;DHT22;1546;47.208;9.038;2023-05-07T07:18:11;18.80;99.90
3071;DHT22;1546;47.208;9.038;2023-05-07T07:20:39;18.60;99.90
3071;DHT22;1546;47.208;9.038;2023-05-07T07:23:06;18.50;99.90
3071;DHT22;1546;47.208;9.038;2023-05-07T07:25:34;18.40;99.90
3071;DHT22;1546;47.208;9.038;2023-05-07T07:28:01;18.40;99.90
3071;DHT22;1546;47.208;9.038;2023-05-07T07:30:28;18.50;99.90
3071;DHT22;1546;47.208;9.038;2023-05-07T07:32:55;18.80;99.90
3071;DHT22;1546;47.208;9.038;2023-05-07T07:35:27;19.00;99.90
3071;DHT22;1546;47.208;9.038;2023-05-07T07:37:54;18.90;99.90
3071;DHT22;1546;47.208;9.038;2023-05-07T07:40:21;18.80;99.90
3071;DHT22;1546;47.208;9.038;2023-05-07T07:42:50;19.00;99.90
3071;DHT22;1546;47.208;9.038;2023-05-07T07:45:16;19.10;99.90
3071;DHT22;1546;47.208;9.038;2023-05-07T07:47:43;19.30;99.90
3071;DHT22;1546;47.208;9.038;2023-05-07T07:50:10;19.50;99.90
3071;DHT22;1546;47.208;9.038;2023-05-07T07:52:38;19.50;99.90
3071;DHT22;1546;47.208;9.038;2023-05-07T07:55:06;19.20;99.90
3071;DHT22;1546;47.208;9.038;2023-05-07T07:57:33;19.10;99.90
3071;DHT22;1546;47.208;9.038;2023-05-07T08:00:01;19.30;99.90
3071;DHT22;1546;47.208;9.038;2023-05-07T08:02:28;19.20;99.50
3071;DHT22;1546;47.208;9.038;2023-05-07T08:04:55;19.30;99.90
3071;DHT22;1546;47.208;9.038;2023-05-07T08:07:22;19.10;99.90
3071;DHT22;1546;47.208;9.038;2023-05-07T08:09:49;19.10;99.90
3071;DHT22;1546;47.208;9.038;2023-05-07T08:12:16;19.00;99.90
3071;DHT22;1546;47.208;9.038;2023-05-07T08:14:43;18.90;99.90
3071;DHT22;1546;47.208;9.038;2023-05-07T08:17:11;18.70;99.90
3071;DHT22;1546;47.208;9.038;2023-05-07T08:19:41;18.50;99.90
3071;DHT22;1546;47.208;9.038;2023-05-07T08:22:08;18.30;99.90
3071;DHT22;1546;47.208;9.038;2023-05-07T08:24:36;18.30;99.90
3071;DHT22;1546;47.208;9.038;2023-05-07T08:27:03;18.40;99.90
3071;DHT22;1546;47.208;9.038;2023-05-07T08:29:29;18.50;99.90
3071;DHT22;1546;47.208;9.038;2023-05-07T08:31:56;18.60;99.90
3071;DHT22;1546;47.208;9.038;2023-05-07T08:34:25;18.70;99.90
3071;DHT22;1546;47.208;9.038;2023-05-07T08:36:51;18.60;99.90
3071;DHT22;1546;47.208;9.038;2023-05-07T08:39:18;18.70;99.90
3071;DHT22;1546;47.208;9.038;2023-05-07T08:41:46;19.00;99.90
3071;DHT22;1546;47.208;9.038;2023-05-07T08:44:15;19.10;99.30
3071;DHT22;1546;47.208;9.038;2023-05-07T08:46:45;19.20;99.20
3071;DHT22;1546;47.208;9.038;2023-05-07T08:49:13;19.10;99.10
3071;DHT22;1546;47.208;9.038;2023-05-07T08:51:42;18.90;99.40
3071;DHT22;1546;47.208;9.038;2023-05-07T08:54:11;19.00;99.90
3071;DHT22;1546;47.208;9.038;2023-05-07T08:56:38;19.20;99.90
3071;DHT22;1546;47.208;9.038;2023-05-07T08:59:06;19.70;99.20
3071;DHT22;1546;47.208;9.038;2023-05-07T09:01:33;20.20;98.50
3071;DHT22;1546;47.208;9.038;2023-05-07T09:04:01;20.60;98.30
3071;DHT22;1546;47.208;9.038;2023-05-07T09:06:28;20.80;98.10
3071;DHT22;1546;47.208;9.038;2023-05-07T09:08:57;20.90;97.80
3071;DHT22;1546;47.208;9.038;2023-05-07T09:11:27;20.80;98.00
3071;DHT22;1546;47.208;9.038;2023-05-07T09:13:54;20.80;98.10
3071;DHT22;1546;47.208;9.038;2023-05-07T09:16:24;20.80;98.30
3071;DHT22;1546;47.208;9.038;2023-05-07T09:18:52;21.00;98.50
3071;DHT22;1546;47.208;9.038;2023-05-07T09:21:20;21.20;98.30
3071;DHT22;1546;47.208;9.038;2023-05-07T09:23:49;21.20;98.30
3071;DHT22;1546;47.208;9.038;2023-05-07T09:26:18;21.30;98.10
3071;DHT22;1546;47.208;9.038;2023-05-07T09:28:47;20.40;97.30
3071;DHT22;1546;47.208;9.038;2023-05-07T09:31:14;19.90;98.30
3071;DHT22;1546;47.208;9.038;2023-05-07T09:33:41;20.00;98.40
3071;DHT22;1546;47.208;9.038;2023-05-07T09:36:09;19.90;98.40
3071;DHT22;1546;47.208;9.038;2023-05-07T09:38:37;20.10;98.40
3071;DHT22;1546;47.208;9.038;2023-05-07T09:41:06;20.30;98.10
3071;DHT22;1546;47.208;9.038;2023-05-07T09:43:35;20.60;98.50
3071;DHT22;1546;47.208;9.038;2023-05-07T09:46:03;20.80;97.70
3071;DHT22;1546;47.208;9.038;2023-05-07T09:48:34;21.30;97.30
3071;DHT22;1546;47.208;9.038;2023-05-07T09:51:06;21.50;97.00
3071;DHT22;1546;47.208;9.038;2023-05-07T09:53:36;21.90;96.30
3071;DHT22;1546;47.208;9.038;2023-05-07T09:56:05;22.10;96.20
3071;DHT22;1546;47.208;9.038;2023-05-07T09:58:34;22.20;95.60
3071;DHT22;1546;47.208;9.038;2023-05-07T10:01:03;22.40;95.60
3071;DHT22;1546;47.208;9.038;2023-05-07T10:03:32;22.00;95.20
3071;DHT22;1546;47.208;9.038;2023-05-07T10:06:00;21.50;95.90
3071;DHT22;1546;47.208;9.038;2023-05-07T10:08:28;21.60;96.70
3071;DHT22;1546;47.208;9.038;2023-05-07T10:10:57;21.90;96.50
3071;DHT22;1546;47.208;9.038;2023-05-07T10:13:24;22.20;95.70
3071;DHT22;1546;47.208;9.038;2023-05-07T10:15:52;22.50;95.80
3071;DHT22;1546;47.208;9.038;2023-05-07T10:18:20;23.00;96.10
3071;DHT22;1546;47.208;9.038;2023-05-07T10:20:51;23.50;95.20
3071;DHT22;1546;47.208;9.038;2023-05-07T10:23:23;23.60;94.50
3071;DHT22;1546;47.208;9.038;2023-05-07T10:25:51;24.20;93.60
3071;DHT22;1546;47.208;9.038;2023-05-07T10:28:21;24.70;93.40
3071;DHT22;1546;47.208;9.038;2023-05-07T10:31:01;24.90;92.10
3071;DHT22;1546;47.208;9.038;2023-05-07T10:33:31;25.00;91.00
3071;DHT22;1546;47.208;9.038;2023-05-07T10:36:00;24.40;91.10
3071;DHT22;1546;47.208;9.038;2023-05-07T10:38:30;24.40;92.20
3071;DHT22;1546;47.208;9.038;2023-05-07T10:40:57;24.50;91.30
3071;DHT22;1546;47.208;9.038;2023-05-07T10:43:24;24.90;91.40
3071;DHT22;1546;47.208;9.038;2023-05-07T10:46:13;25.00;91.10
3071;DHT22;1546;47.208;9.038;2023-05-07T10:49:11;25.00;90.10
3071;DHT22;1546;47.208;9.038;2023-05-07T10:51:38;25.50;89.80
3071;DHT22;1546;47.208;9.038;2023-05-07T10:54:21;25.40;87.40
3071;DHT22;1546;47.208;9.038;2023-05-07T10:56:49;25.70;87.90
3071;DHT22;1546;47.208;9.038;2023-05-07T10:59:35;26.10;87.50
3071;DHT22;1546;47.208;9.038;2023-05-07T11:02:09;26.30;83.80
3071;DHT22;1546;47.208;9.038;2023-05-07T11:04:37;26.60;84.10
3071;DHT22;1546;47.208;9.038;2023-05-07T11:07:29;26.80;85.20
3071;DHT22;1546;47.208;9.038;2023-05-07T11:10:04;26.90;80.80
3071;DHT22;1546;47.208;9.038;2023-05-07T11:12:53;27.50;81.80
3071;DHT22;1546;47.208;9.038;2023-05-07T11:15:40;28.50;79.20
3071;DHT22;1546;47.208;9.038;2023-05-07T11:18:11;29.10;78.70
3071;DHT22;1546;47.208;9.038;2023-05-07T11:20:53;29.60;78.50
3071;DHT22;1546;47.208;9.038;2023-05-07T11:23:56;29.60;72.10
3071;DHT22;1546;47.208;9.038;2023-05-07T11:26:24;29.40;74.80
3071;DHT22;1546;47.208;9.038;2023-05-07T11:28:52;29.60;73.90
3071;DHT22;1546;47.208;9.038;2023-05-07T11:31:21;30.20;70.80
3071;DHT22;1546;47.208;9.038;2023-05-07T11:33:52;31.00;70.20
3071;DHT22;1546;47.208;9.038;2023-05-07T11:36:19;31.50;65.80
3071;DHT22;1546;47.208;9.038;2023-05-07T11:38:46;31.00;64.60
3071;DHT22;1546;47.208;9.038;2023-05-07T11:41:13;30.90;63.30
3071;DHT22;1546;47.208;9.038;2023-05-07T11:43:57;31.10;63.10
3071;DHT22;1546;47.208;9.038;2023-05-07T11:46:25;30.90;64.50
3071;DHT22;1546;47.208;9.038;2023-05-07T11:48:53;30.60;64.00
3071;DHT22;1546;47.208;9.038;2023-05-07T11:51:22;30.40;62.20
3071;DHT22;1546;47.208;9.038;2023-05-07T11:53:49;30.40;62.90
3071;DHT22;1546;47.208;9.038;2023-05-07T11:56:17;30.50;61.40
3071;DHT22;1546;47.208;9.038;2023-05-07T11:58:45;30.20;61.70
3071;DHT22;1546;47.208;9.038;2023-05-07T12:01:13;30.70;60.50
3071;DHT22;1546;47.208;9.038;2023-05-07T12:03:42;31.00;60.50
3071;DHT22;1546;47.208;9.038;2023-05-07T12:06:12;31.30;58.30
3071;DHT22;1546;47.208;9.038;2023-05-07T12:08:41;31.60;56.60
3071;DHT22;1546;47.208;9.038;2023-05-07T12:11:08;31.60;58.60
3071;DHT22;1546;47.208;9.038;2023-05-07T12:13:37;31.60;57.80
3071;DHT22;1546;47.208;9.038;2023-05-07T12:16:05;30.50;56.00
3071;DHT22;1546;47.208;9.038;2023-05-07T12:18:36;30.30;57.80
3071;DHT22;1546;47.208;9.038;2023-05-07T12:21:05;30.20;56.80
3071;DHT22;1546;47.208;9.038;2023-05-07T12:23:35;30.50;54.90
3071;DHT22;1546;47.208;9.038;2023-05-07T12:26:03;30.70;57.80
3071;DHT22;1546;47.208;9.038;2023-05-07T12:28:36;30.70;57.10
3071;DHT22;1546;47.208;9.038;2023-05-07T12:31:03;30.20;57.90
3071;DHT22;1546;47.208;9.038;2023-05-07T12:33:31;29.90;61.20
3071;DHT22;1546;47.208;9.038;2023-05-07T12:35:58;29.90;57.60
3071;DHT22;1546;47.208;9.038;2023-05-07T12:38:36;30.30;59.40
3071;DHT22;1546;47.208;9.038;2023-05-07T12:41:04;30.70;60.10
3071;DHT22;1546;47.208;9.038;2023-05-07T12:43:32;31.20;58.10
3071;DHT22;1546;47.208;9.038;2023-05-07T12:46:01;31.80;60.10
3071;DHT22;1546;47.208;9.038;2023-05-07T12:48:30;31.00;57.30
3071;DHT22;1546;47.208;9.038;2023-05-07T12:50:58;30.80;57.60
3071;DHT22;1546;47.208;9.038;2023-05-07T12:53:26;31.00;58.00
3071;DHT22;1546;47.208;9.038;2023-05-07T12:55:56;31.20;58.30
3071;DHT22;1546;47.208;9.038;2023-05-07T12:58:26;31.60;58.60
3071;DHT22;1546;47.208;9.038;2023-05-07T13:00:54;32.20;57.00
3071;DHT22;1546;47.208;9.038;2023-05-07T13:03:28;32.80;53.70
3071;DHT22;1546;47.208;9.038;2023-05-07T13:05:57;32.60;53.30
3071;DHT22;1546;47.208;9.038;2023-05-07T13:08:29;32.50;52.30
3071;DHT22;1546;47.208;9.038;2023-05-07T13:10:59;32.20;52.90
3071;DHT22;1546;47.208;9.038;2023-05-07T13:13:29;32.40;54.40
3071;DHT22;1546;47.208;9.038;2023-05-07T13:15:56;32.20;54.40
3071;DHT22;1546;47.208;9.038;2023-05-07T13:18:24;32.40;54.90
3071;DHT22;1546;47.208;9.038;2023-05-07T13:20:51;32.00;55.90
3071;DHT22;1546;47.208;9.038;2023-05-07T13:23:18;31.70;56.80
3071;DHT22;1546;47.208;9.038;2023-05-07T13:25:45;30.90;57.50
3071;DHT22;1546;47.208;9.038;2023-05-07T13:28:13;30.50;59.50
3071;DHT22;1546;47.208;9.038;2023-05-07T13:30:40;30.10;59.50
3071;DHT22;1546;47.208;9.038;2023-05-07T13:33:07;30.10;60.10
3071;DHT22;1546;47.208;9.038;2023-05-07T13:35:34;30.10;59.10
3071;DHT22;1546;47.208;9.038;2023-05-07T13:38:01;30.00;58.10
3071;DHT22;1546;47.208;9.038;2023-05-07T13:40:28;30.70;58.80
3071;DHT22;1546;47.208;9.038;2023-05-07T13:42:57;31.60;56.30
3071;DHT22;1546;47.208;9.038;2023-05-07T13:45:26;31.90;56.30
3071;DHT22;1546;47.208;9.038;2023-05-07T13:47:55;32.30;55.50
3071;DHT22;1546;47.208;9.038;2023-05-07T13:50:23;32.40;54.10
3071;DHT22;1546;47.208;9.038;2023-05-07T13:52:52;32.00;54.70
3071;DHT22;1546;47.208;9.038;2023-05-07T13:55:19;31.90;55.00
3071;DHT22;1546;47.208;9.038;2023-05-07T13:57:47;32.10;54.50
3071;DHT22;1546;47.208;9.038;2023-05-07T14:00:14;31.90;55.50
3071;DHT22;1546;47.208;9.038;2023-05-07T14:02:43;31.60;56.50
3071;DHT22;1546;47.208;9.038;2023-05-07T14:05:10;31.00;58.60
3071;DHT22;1546;47.208;9.038;2023-05-07T14:07:38;30.40;59.70
3071;DHT22;1546;47.208;9.038;2023-05-07T14:10:06;30.40;61.30
3071;DHT22;1546;47.208;9.038;2023-05-07T14:12:33;30.20;59.60
3071;DHT22;1546;47.208;9.038;2023-05-07T14:15:00;28.90;62.10
3071;DHT22;1546;47.208;9.038;2023-05-07T14:17:27;27.70;67.10
3071;DHT22;1546;47.208;9.038;2023-05-07T14:19:56;27.20;67.30
3071;DHT22;1546;47.208;9.038;2023-05-07T14:22:24;26.70;70.00
3071;DHT22;1546;47.208;9.038;2023-05-07T14:24:51;25.90;72.10
3071;DHT22;1546;47.208;9.038;2023-05-07T14:27:17;25.20;74.30
3071;DHT22;1546;47.208;9.038;2023-05-07T14:29:44;24.40;76.50
3071;DHT22;1546;47.208;9.038;2023-05-07T14:32:16;24.00;78.80
3071;DHT22;1546;47.208;9.038;2023-05-07T14:34:43;23.60;79.60
3071;DHT22;1546;47.208;9.038;2023-05-07T14:37:11;23.20;81.10
3071;DHT22;1546;47.208;9.038;2023-05-07T14:39:39;22.90;81.70
3071;DHT22;1546;47.208;9.038;2023-05-07T14:42:06;22.80;83.00
3071;DHT22;1546;47.208;9.038;2023-05-07T14:44:33;22.50;84.00
3071;DHT22;1546;47.208;9.038;2023-05-07T14:47:00;22.40;84.00
3071;DHT22;1546;47.208;9.038;2023-05-07T14:49:27;22.30;84.70
3071;DHT22;1546;47.208;9.038;2023-05-07T14:51:56;22.00;86.50
3071;DHT22;1546;47.208;9.038;2023-05-07T14:54:25;21.90;84.60
3071;DHT22;1546;47.208;9.038;2023-05-07T14:56:52;21.70;84.80
3071;DHT22;1546;47.208;9.038;2023-05-07T14:59:19;21.40;85.60
3071;DHT22;1546;47.208;9.038;2023-05-07T15:01:46;21.40;86.50
3071;DHT22;1546;47.208;9.038;2023-05-07T15:04:14;21.30;88.80
3071;DHT22;1546;47.208;9.038;2023-05-07T15:06:41;21.30;90.20
3071;DHT22;1546;47.208;9.038;2023-05-07T15:09:08;21.20;82.80
3071;DHT22;1546;47.208;9.038;2023-05-07T15:11:36;21.00;79.60
3071;DHT22;1546;47.208;9.038;2023-05-07T15:14:03;20.80;76.70
3071;DHT22;1546;47.208;9.038;2023-05-07T15:16:30;20.60;74.50
3071;DHT22;1546;47.208;9.038;2023-05-07T15:18:58;20.50;75.80
3071;DHT22;1546;47.208;9.038;2023-05-07T15:21:25;20.30;77.30
3071;DHT22;1546;47.208;9.038;2023-05-07T15:23:52;19.90;79.60
3071;DHT22;1546;47.208;9.038;2023-05-07T15:26:19;19.50;81.20
3071;DHT22;1546;47.208;9.038;2023-05-07T15:28:47;19.30;83.90
3071;DHT22;1546;47.208;9.038;2023-05-07T15:31:15;18.90;86.20
3071;DHT22;1546;47.208;9.038;2023-05-07T15:33:42;18.60;91.90
3071;DHT22;1546;47.208;9.038;2023-05-07T15:36:08;18.30;92.10
3071;DHT22;1546;47.208;9.038;2023-05-07T15:38:35;18.20;93.10
3071;DHT22;1546;47.208;9.038;2023-05-07T15:41:02;17.80;95.70
3071;DHT22;1546;47.208;9.038;2023-05-07T15:43:29;17.00;98.40
3071;DHT22;1546;47.208;9.038;2023-05-07T15:45:57;16.40;99.90
3071;DHT22;1546;47.208;9.038;2023-05-07T15:48:25;15.90;99.90
3071;DHT22;1546;47.208;9.038;2023-05-07T15:50:52;15.20;99.90
3071;DHT22;1546;47.208;9.038;2023-05-07T15:53:19;14.70;99.90
3071;DHT22;1546;47.208;9.038;2023-05-07T15:55:46;14.60;99.90
3071;DHT22;1546;47.208;9.038;2023-05-07T15:58:13;14.40;99.90
3071;DHT22;1546;47.208;9.038;2023-05-07T16:00:40;14.10;99.90
3071;DHT22;1546;47.208;9.038;2023-05-07T16:03:08;14.10;99.90
3071;DHT22;1546;47.208;9.038;2023-05-07T16:05:35;14.10;99.90
3071;DHT22;1546;47.208;9.038;2023-05-07T16:08:02;14.10;99.90